Time;durP1;ratioP1;P1;durP2;ratioP2;P2;SDS_P1;SDS_P2;PMS_P1;PMS_P2;Temp;Humidity;BMP_temperature;BMP_pressure;BME280_temperature;BME280_humidity;BME280_pressure;Samples;Min_cycle;Max_cycle;Signal;HPM_P1;HPM_P2
2023/12/31 00:01:35;;;;;;;9.38;1.90;;;;;;;;;;5135371;27;20054;-73
2023/12/31 00:04:02;;;;;;;5.38;1.75;;;;;;;;;;5134099;27;20050;-72
2023/12/31 00:06:28;;;;;;;5.97;2.20;;;;;;;;;;5147384;27;20146;-72
2023/12/31 00:08:54;;;;;;;6.30;2.58;;;;;;;;;;5155951;27;20054;-72
2023/12/31 00:11:21;;;;;;;4.80;2.08;;;;;;;;;;5137533;27;20094;-72
2023/12/31 00:13:47;;;;;;;8.60;2.25;;;;;;;;;;5137807;27;20058;-72
2023/12/31 00:16:15;;;;;;;7.75;1.80;;;;;;;;;;5156506;27;20046;-74
2023/12/31 00:18:40;;;;;;;;;;;;;;;;;;5138362;27;20053;-72
2023/12/31 00:21:07;;;;;;;5.82;2.00;;;;;;;;;;5137657;27;19923;-71
2023/12/31 00:23:33;;;;;;;4.97;1.50;;;;;;;;;;5137142;27;20038;-72
2023/12/31 00:25:59;;;;;;;4.32;1.52;;;;;;;;;;5137956;27;20046;-71
2023/12/31 00:28:25;;;;;;;6.35;1.42;;;;;;;;;;5155531;27;20043;-71
2023/12/31 00:30:51;;;;;;;4.72;1.70;;;;;;;;;;5155595;27;20073;-71
2023/12/31 00:33:17;;;;;;;4.60;1.30;;;;;;;;;;5136989;27;20043;-73
2023/12/31 00:35:43;;;;;;;5.95;1.35;;;;;;;;;;5137044;27;20038;-72
2023/12/31 00:38:09;;;;;;;5.75;1.30;;;;;;;;;;5155344;27;20054;-71
2023/12/31 00:40:35;;;;;;;4.20;1.55;;;;;;;;;;5120845;27;20046;-72
2023/12/31 00:43:01;;;;;;;5.22;1.35;;;;;;;;;;5136535;27;20042;-71
2023/12/31 00:45:28;;;;;;;4.10;1.25;;;;;;;;;;5137062;27;20043;-72
2023/12/31 00:47:54;;;;;;;3.15;1.13;;;;;;;;;;5137060;27;20042;-73
2023/12/31 00:50:20;;;;;;;5.00;1.13;;;;;;;;;;5155238;27;20038;-72
2023/12/31 00:52:46;;;;;;;3.40;1.13;;;;;;;;;;5155260;27;20051;-71
2023/12/31 00:55:12;;;;;;;3.63;1.23;;;;;;;;;;5137356;27;20047;-73
2023/12/31 00:57:38;;;;;;;3.80;1.13;;;;;;;;;;5155270;27;20396;-72
2023/12/31 01:00:05;;;;;;;4.22;1.10;;;;;;;;;;5156015;27;20093;-72
2023/12/31 01:02:31;;;;;;;4.05;0.90;;;;;;;;;;5137158;27;20058;-73
2023/12/31 01:04:57;;;;;;;4.65;1.17;;;;;;;;;;5136703;27;20046;-70
2023/12/31 01:07:23;;;;;;;3.70;1.10;;;;;;;;;;5162543;27;20077;-71
2023/12/31 01:09:49;;;;;;;2.13;0.80;;;;;;;;;;5143515;27;20046;-72
2023/12/31 01:12:16;;;;;;;2.10;0.70;;;;;;;;;;5161965;27;20410;-73
2023/12/31 01:14:42;;;;;;;4.40;1.48;;;;;;;;;;5126557;27;20050;-73
2023/12/31 01:17:08;;;;;;;2.53;1.10;;;;;;;;;;5162003;27;20126;-73
2023/12/31 01:19:35;;;;;;;2.87;1.13;;;;;;;;;;5161589;27;20047;-71
2023/12/31 01:22:01;;;;;;;3.30;1.20;;;;;;;;;;5162043;27;20460;-72
2023/12/31 01:24:27;;;;;;;5.00;1.30;;;;;;;;;;5143707;27;20050;-72
2023/12/31 01:26:53;;;;;;;3.97;0.90;;;;;;;;;;5143572;27;20050;-72
2023/12/31 01:29:20;;;;;;;4.10;1.10;;;;;;;;;;5161745;27;20390;-72
2023/12/31 01:31:46;;;;;;;3.10;1.08;;;;;;;;;;5143215;27;20485;-71
2023/12/31 01:34:12;;;;;;;3.33;1.20;;;;;;;;;;5144329;27;20042;-69
2023/12/31 01:36:38;;;;;;;4.35;1.27;;;;;;;;;;5161829;27;20396;-72
2023/12/31 01:39:05;;;;;;;3.53;1.20;;;;;;;;;;5143287;27;20053;-73
2023/12/31 01:41:31;;;;;;;4.03;1.20;;;;;;;;;;5161650;27;20043;-72
2023/12/31 01:44:04;;;;;;;4.20;1.33;;;;;;;;;;5142866;27;20034;-71
2023/12/31 01:46:31;;;;;;;4.90;1.50;;;;;;;;;;5126502;27;20129;-73
2023/12/31 01:48:57;;;;;;;4.47;1.13;;;;;;;;;;5143380;27;20412;-73
2023/12/31 01:51:24;;;;;;;3.43;1.17;;;;;;;;;;5161580;27;20043;-73
2023/12/31 01:53:50;;;;;;;3.70;1.17;;;;;;;;;;5161610;27;20122;-72
2023/12/31 01:56:18;;;;;;;3.88;1.10;;;;;;;;;;5161178;27;20046;-71
2023/12/31 01:58:44;;;;;;;;;;;;;;;;;;5143502;27;20039;-72
2023/12/31 02:01:10;;;;;;;4.72;1.17;;;;;;;;;;5142971;27;19925;-73
2023/12/31 02:03:36;;;;;;;6.20;1.20;;;;;;;;;;5161435;27;20042;-73
2023/12/31 02:06:02;;;;;;;3.25;0.82;;;;;;;;;;5143002;27;20093;-73
2023/12/31 02:08:28;;;;;;;4.55;0.90;;;;;;;;;;5161447;27;20050;-72
2023/12/31 02:10:55;;;;;;;3.10;0.80;;;;;;;;;;5142979;27;20051;-73
2023/12/31 02:13:21;;;;;;;3.97;1.10;;;;;;;;;;5161397;27;20046;-72
2023/12/31 02:15:47;;;;;;;4.32;0.90;;;;;;;;;;5161969;27;20047;-73
2023/12/31 02:18:13;;;;;;;4.00;1.15;;;;;;;;;;5158233;27;20043;-73
2023/12/31 02:20:39;;;;;;;4.35;1.10;;;;;;;;;;5158057;27;20096;-72
2023/12/31 02:23:05;;;;;;;4.10;1.25;;;;;;;;;;5157981;27;20103;-72
2023/12/31 02:25:34;;;;;;;4.97;1.13;;;;;;;;;;5158046;27;20138;-73
2023/12/31 02:28:00;;;;;;;6.03;1.10;;;;;;;;;;5139953;27;20049;-72
2023/12/31 02:30:26;;;;;;;5.18;1.40;;;;;;;;;;5157850;27;20051;-72
2023/12/31 02:32:53;;;;;;;4.70;1.40;;;;;;;;;;5123412;27;20050;-73
2023/12/31 02:35:19;;;;;;;5.25;1.58;;;;;;;;;;5157948;27;20043;-73
2023/12/31 02:37:45;;;;;;;6.55;1.40;;;;;;;;;;5139356;27;20104;-73
2023/12/31 02:40:11;;;;;;;5.97;1.90;;;;;;;;;;5157782;27;20078;-73
2023/12/31 02:42:37;;;;;;;3.95;1.50;;;;;;;;;;5157677;27;20100;-73
2023/12/31 02:45:03;;;;;;;5.95;1.75;;;;;;;;;;5157707;27;20043;-73
2023/12/31 02:47:29;;;;;;;6.50;1.40;;;;;;;;;;5121887;27;20039;-73
2023/12/31 02:49:56;;;;;;;5.35;1.45;;;;;;;;;;5158105;27;20759;-72
2023/12/31 02:52:22;;;;;;;5.30;1.17;;;;;;;;;;5157581;27;20066;-73
2023/12/31 02:54:48;;;;;;;3.53;0.90;;;;;;;;;;5157326;27;20082;-79
2023/12/31 02:57:14;;;;;;;7.28;1.40;;;;;;;;;;5139287;27;20393;-77
2023/12/31 02:59:40;;;;;;;3.58;1.10;;;;;;;;;;5139102;27;20079;-78
2023/12/31 03:02:06;;;;;;;5.28;1.20;;;;;;;;;;5157491;27;20417;-79
2023/12/31 03:04:32;;;;;;;4.60;0.93;;;;;;;;;;5156992;27;20417;-77
2023/12/31 03:06:58;;;;;;;4.13;1.02;;;;;;;;;;5138622;27;20051;-77
2023/12/31 03:09:24;;;;;;;2.92;1.00;;;;;;;;;;5157233;27;20047;-78
2023/12/31 03:11:51;;;;;;;3.58;0.90;;;;;;;;;;5157908;27;20137;-77
2023/12/31 03:14:17;;;;;;;3.70;1.30;;;;;;;;;;5157004;27;20208;-78
2023/12/31 03:16:47;;;;;;;2.22;0.80;;;;;;;;;;5138742;27;20042;-77
2023/12/31 03:19:13;;;;;;;3.53;0.93;;;;;;;;;;5157055;27;20038;-78
2023/12/31 03:21:40;;;;;;;2.67;1.10;;;;;;;;;;5138788;27;20043;-78
2023/12/31 03:24:06;;;;;;;3.83;0.98;;;;;;;;;;5157148;27;20389;-79
2023/12/31 03:26:32;;;;;;;2.83;0.85;;;;;;;;;;5157077;27;20046;-78
2023/12/31 03:28:58;;;;;;;4.57;1.15;;;;;;;;;;5156367;27;20047;-78
2023/12/31 03:31:24;;;;;;;4.47;0.80;;;;;;;;;;5139244;27;20098;-78
2023/12/31 03:33:51;;;;;;;4.00;0.90;;;;;;;;;;5156677;27;20035;-77
2023/12/31 03:36:17;;;;;;;5.47;1.00;;;;;;;;;;5156776;27;20045;-78
2023/12/31 03:38:43;;;;;;;2.78;1.05;;;;;;;;;;5138465;27;20058;-79
2023/12/31 03:41:09;;;;;;;3.55;1.25;;;;;;;;;;5138170;27;20057;-78
2023/12/31 03:43:35;;;;;;;3.85;0.98;;;;;;;;;;5156398;27;20039;-80
2023/12/31 03:46:01;;;;;;;7.00;1.10;;;;;;;;;;5156450;27;20042;-78
2023/12/31 03:48:27;;;;;;;4.45;1.60;;;;;;;;;;5138946;27;20378;-78
2023/12/31 03:50:53;;;;;;;4.97;1.30;;;;;;;;;;5157170;27;20055;-79
2023/12/31 03:53:19;;;;;;;4.80;1.10;;;;;;;;;;5137897;27;20039;-77
2023/12/31 03:55:46;;;;;;;4.70;1.05;;;;;;;;;;5137884;27;20133;-77
2023/12/31 03:58:12;;;;;;;5.63;1.42;;;;;;;;;;5156344;27;20054;-78
2023/12/31 04:00:38;;;;;;;7.13;1.50;;;;;;;;;;5156063;27;20043;-76
2023/12/31 04:03:04;;;;;;;4.38;1.48;;;;;;;;;;5138453;27;20043;-77
2023/12/31 04:05:31;;;;;;;6.00;1.30;;;;;;;;;;5155961;27;20046;-77
2023/12/31 04:07:57;;;;;;;5.28;1.15;;;;;;;;;;5120877;27;20034;-78
2023/12/31 04:10:23;;;;;;;3.35;1.13;;;;;;;;;;5156205;27;20051;-78
2023/12/31 04:12:49;;;;;;;4.32;1.30;;;;;;;;;;5156327;27;20043;-75
2023/12/31 04:15:15;;;;;;;4.30;1.40;;;;;;;;;;5120796;27;20134;-79
2023/12/31 04:17:41;;;;;;;3.80;0.95;;;;;;;;;;5156415;27;20043;-76
2023/12/31 04:20:07;;;;;;;4.40;1.40;;;;;;;;;;5156170;27;20099;-77
2023/12/31 04:22:33;;;;;;;5.30;1.17;;;;;;;;;;5156796;27;20046;-80
2023/12/31 04:25:01;;;;;;;2.90;0.88;;;;;;;;;;5138763;27;20151;-79
2023/12/31 04:27:30;;;;;;;3.88;0.95;;;;;;;;;;5140993;27;20088;-77
2023/12/31 04:29:56;;;;;;;3.67;1.33;;;;;;;;;;5142075;27;20061;-79
2023/12/31 04:32:25;;;;;;;3.08;0.82;;;;;;;;;;5162956;27;20509;-77
2023/12/31 04:34:51;;;;;;;3.58;1.17;;;;;;;;;;5125128;27;20049;-78
2023/12/31 04:37:17;;;;;;;4.18;1.00;;;;;;;;;;5158348;27;20102;-79
2023/12/31 04:39:43;;;;;;;3.33;1.30;;;;;;;;;;5157358;27;20047;-79
2023/12/31 04:42:09;;;;;;;3.65;1.13;;;;;;;;;;5137872;27;20043;-77
2023/12/31 04:44:35;;;;;;;3.85;1.20;;;;;;;;;;5138126;27;20085;-79
2023/12/31 04:47:01;;;;;;;3.35;1.13;;;;;;;;;;5156695;27;20053;-77
2023/12/31 04:49:27;;;;;;;3.15;1.05;;;;;;;;;;5157155;27;20046;-78
2023/12/31 04:51:53;;;;;;;3.30;1.17;;;;;;;;;;5121111;27;20042;-77
2023/12/31 04:54:20;;;;;;;3.30;1.20;;;;;;;;;;5137403;27;20059;-77
2023/12/31 04:56:46;;;;;;;4.40;1.40;;;;;;;;;;5156223;27;20374;-78
2023/12/31 04:59:12;;;;;;;4.45;1.40;;;;;;;;;;5120044;27;20129;-78
2023/12/31 05:01:38;;;;;;;2.95;1.05;;;;;;;;;;5155441;27;20139;-76
2023/12/31 05:04:04;;;;;;;4.95;1.20;;;;;;;;;;5137012;27;20046;-78
2023/12/31 05:06:30;;;;;;;4.78;1.27;;;;;;;;;;5155393;27;20099;-77
2023/12/31 05:08:56;;;;;;;4.20;1.27;;;;;;;;;;5154975;27;20090;-79
2023/12/31 05:11:22;;;;;;;4.30;0.90;;;;;;;;;;5155675;27;20129;-77
2023/12/31 05:13:48;;;;;;;4.43;1.17;;;;;;;;;;5155321;27;20039;-78
2023/12/31 05:16:15;;;;;;;4.75;1.70;;;;;;;;;;5120448;27;20043;-78
2023/12/31 05:18:46;;;;;;;5.18;1.42;;;;;;;;;;5155085;27;20166;-79
2023/12/31 05:21:12;;;;;;;3.05;1.10;;;;;;;;;;5137209;27;20050;-79
2023/12/31 05:23:38;;;;;;;3.17;0.90;;;;;;;;;;5155327;27;20095;-76
2023/12/31 05:26:04;;;;;;;4.00;1.25;;;;;;;;;;5136426;27;20043;-76
2023/12/31 05:28:31;;;;;;;3.13;0.82;;;;;;;;;;5154765;27;20490;-78
2023/12/31 05:30:57;;;;;;;4.53;1.20;;;;;;;;;;5137135;27;20367;-79
2023/12/31 05:33:23;;;;;;;2.70;1.07;;;;;;;;;;5155303;27;20051;-77
2023/12/31 05:35:49;;;;;;;2.80;1.08;;;;;;;;;;5155698;27;20321;-77
2023/12/31 05:38:16;;;;;;;3.67;1.13;;;;;;;;;;5155676;27;20050;-79
2023/12/31 05:40:42;;;;;;;2.97;1.20;;;;;;;;;;5155357;27;20387;-78
2023/12/31 05:43:08;;;;;;;2.80;0.80;;;;;;;;;;5154715;27;20093;-77
2023/12/31 05:45:35;;;;;;;3.50;1.17;;;;;;;;;;5154957;27;20042;-77
2023/12/31 05:48:01;;;;;;;3.00;0.93;;;;;;;;;;5137190;27;20600;-77
2023/12/31 05:50:27;;;;;;;4.13;1.02;;;;;;;;;;5136703;27;20050;-78
2023/12/31 05:52:53;;;;;;;2.17;0.82;;;;;;;;;;5137662;27;20481;-77
2023/12/31 05:55:19;;;;;;;2.58;0.98;;;;;;;;;;5140717;27;20378;-78
2023/12/31 05:57:45;;;;;;;3.00;0.93;;;;;;;;;;5141110;27;20051;-76
2023/12/31 06:00:11;;;;;;;7.80;1.23;;;;;;;;;;5158769;27;20043;-79
2023/12/31 06:02:38;;;;;;;3.27;0.80;;;;;;;;;;5140725;27;20434;-78
2023/12/31 06:05:04;;;;;;;3.25;0.90;;;;;;;;;;5158379;27;20339;-78
2023/12/31 06:07:30;;;;;;;3.15;1.10;;;;;;;;;;5159168;27;20057;-77
2023/12/31 06:09:56;;;;;;;3.63;1.17;;;;;;;;;;5123354;27;20053;-77
2023/12/31 06:12:23;;;;;;;3.17;1.00;;;;;;;;;;5158677;27;20043;-79
2023/12/31 06:14:49;;;;;;;4.63;1.50;;;;;;;;;;5158614;27;20484;-77
2023/12/31 06:17:15;;;;;;;4.95;1.00;;;;;;;;;;5123534;27;20053;-78
2023/12/31 06:19:41;;;;;;;4.07;1.20;;;;;;;;;;5158617;27;20050;-77
2023/12/31 06:22:07;;;;;;;3.88;1.20;;;;;;;;;;5158040;27;20057;-77
2023/12/31 06:24:33;;;;;;;4.75;1.15;;;;;;;;;;5158031;27;20126;-77
2023/12/31 06:27:00;;;;;;;5.05;1.20;;;;;;;;;;5158081;27;20039;-78
2023/12/31 06:29:26;;;;;;;4.90;1.52;;;;;;;;;;5140507;27;20053;-78
2023/12/31 06:31:52;;;;;;;3.97;1.48;;;;;;;;;;5159198;27;20107;-79
2023/12/31 06:34:18;;;;;;;3.53;1.33;;;;;;;;;;5158740;27;20039;-80
2023/12/31 06:36:44;;;;;;;4.65;1.52;;;;;;;;;;5141003;27;20086;-79
2023/12/31 06:39:10;;;;;;;4.68;1.23;;;;;;;;;;5158420;27;20535;-80
2023/12/31 06:41:37;;;;;;;3.17;1.20;;;;;;;;;;5157917;27;20445;-77
2023/12/31 06:44:03;;;;;;;5.25;1.27;;;;;;;;;;5157577;27;20039;-76
2023/12/31 06:46:30;;;;;;;7.72;1.20;;;;;;;;;;5157873;27;20046;-75
2023/12/31 06:48:56;;;;;;;3.85;1.23;;;;;;;;;;5157703;27;20402;-77
2023/12/31 06:51:23;;;;;;;3.05;1.23;;;;;;;;;;5122436;27;20046;-76
2023/12/31 06:53:49;;;;;;;4.05;1.02;;;;;;;;;;5158794;27;20039;-77
2023/12/31 06:56:18;;;;;;;3.25;1.25;;;;;;;;;;5142639;27;20039;-76
2023/12/31 06:58:44;;;;;;;3.70;1.27;;;;;;;;;;5125830;27;20102;-76
2023/12/31 07:01:10;;;;;;;2.80;1.10;;;;;;;;;;5158773;27;20047;-76
2023/12/31 07:03:36;;;;;;;5.45;1.13;;;;;;;;;;5157116;27;20359;-77
2023/12/31 07:06:02;;;;;;;3.42;1.27;;;;;;;;;;5138297;27;20069;-75
2023/12/31 07:08:28;;;;;;;4.60;1.40;;;;;;;;;;5157835;27;20086;-80
2023/12/31 07:10:55;;;;;;;4.38;1.52;;;;;;;;;;5158020;27;20082;-77
2023/12/31 07:13:21;;;;;;;3.35;1.30;;;;;;;;;;5157535;27;20046;-79
2023/12/31 07:15:47;;;;;;;2.22;1.00;;;;;;;;;;5121818;27;20057;-79
2023/12/31 07:18:13;;;;;;;4.25;1.40;;;;;;;;;;5157511;27;20434;-78
2023/12/31 07:20:40;;;;;;;3.43;1.37;;;;;;;;;;5122416;27;20042;-78
2023/12/31 07:23:06;;;;;;;4.68;1.17;;;;;;;;;;5139173;27;20057;-80
2023/12/31 07:25:32;;;;;;;6.50;1.52;;;;;;;;;;5157369;27;20053;-77
2023/12/31 07:27:58;;;;;;;5.00;1.50;;;;;;;;;;5159301;27;20039;-79
2023/12/31 07:30:25;;;;;;;4.18;1.70;;;;;;;;;;5163095;27;20050;-77
2023/12/31 07:32:51;;;;;;;7.22;1.50;;;;;;;;;;5143662;27;20107;-76
2023/12/31 07:35:17;;;;;;;6.35;1.45;;;;;;;;;;5139616;27;20043;-77
2023/12/31 07:37:43;;;;;;;3.27;1.30;;;;;;;;;;5138805;27;20042;-78
2023/12/31 07:40:13;;;;;;;4.22;1.10;;;;;;;;;;5157760;27;20655;-76
2023/12/31 07:42:39;;;;;;;4.55;1.40;;;;;;;;;;5156888;27;20046;-77
2023/12/31 07:45:06;;;;;;;3.50;1.33;;;;;;;;;;5157066;27;20092;-78
2023/12/31 07:47:35;;;;;;;3.22;1.40;;;;;;;;;;5157262;27;20043;-79
2023/12/31 07:50:02;;;;;;;3.80;1.50;;;;;;;;;;5138670;27;20042;-80
2023/12/31 07:52:28;;;;;;;5.13;1.45;;;;;;;;;;5138526;27;20359;-76
2023/12/31 07:54:54;;;;;;;3.60;1.30;;;;;;;;;;5138492;27;20049;-74
2023/12/31 07:57:21;;;;;;;5.53;1.98;;;;;;;;;;5156251;27;20494;-78
2023/12/31 07:59:47;;;;;;;4.53;1.75;;;;;;;;;;5156607;27;20078;-78
2023/12/31 08:02:13;;;;;;;3.63;1.40;;;;;;;;;;5156656;27;20387;-77
2023/12/31 08:04:39;;;;;;;3.47;1.13;;;;;;;;;;5138828;27;20038;-78
2023/12/31 08:07:05;;;;;;;3.00;1.02;;;;;;;;;;5156944;27;20108;-80
2023/12/31 08:09:31;;;;;;;3.75;1.50;;;;;;;;;;5139725;27;20447;-78
2023/12/31 08:11:58;;;;;;;4.80;1.30;;;;;;;;;;5156510;27;20383;-77
2023/12/31 08:14:24;;;;;;;3.70;1.08;;;;;;;;;;5156233;27;20039;-79
2023/12/31 08:16:50;;;;;;;4.47;1.58;;;;;;;;;;5137082;27;20130;-78
2023/12/31 08:19:16;;;;;;;2.97;1.20;;;;;;;;;;5156549;27;20050;-78
2023/12/31 08:21:42;;;;;;;3.37;1.60;;;;;;;;;;5156506;27;20053;-79
2023/12/31 08:24:08;;;;;;;4.93;1.20;;;;;;;;;;5138061;27;20039;-81
2023/12/31 08:26:37;;;;;;;5.47;1.60;;;;;;;;;;5156224;27;20513;-78
2023/12/31 08:29:03;;;;;;;4.63;1.50;;;;;;;;;;5156717;27;20050;-79
2023/12/31 08:31:29;;;;;;;2.40;0.93;;;;;;;;;;5120640;27;20056;-78
2023/12/31 08:33:56;;;;;;;3.63;1.40;;;;;;;;;;5156358;27;20082;-77
2023/12/31 08:36:22;;;;;;;3.13;0.87;;;;;;;;;;5155906;27;20046;-78
2023/12/31 08:38:48;;;;;;;4.07;1.60;;;;;;;;;;5155851;27;20280;-78
2023/12/31 08:41:14;;;;;;;2.63;0.98;;;;;;;;;;5156095;27;20038;-78
2023/12/31 08:43:40;;;;;;;3.17;1.23;;;;;;;;;;5156093;27;20042;-77
2023/12/31 08:46:07;;;;;;;3.60;1.20;;;;;;;;;;5137293;27;20093;-76
2023/12/31 08:48:33;;;;;;;3.58;1.23;;;;;;;;;;5155661;27;20390;-77
2023/12/31 08:50:59;;;;;;;4.72;1.55;;;;;;;;;;5155849;27;20042;-76
2023/12/31 08:53:25;;;;;;;3.15;1.30;;;;;;;;;;5136526;27;20065;-80
2023/12/31 08:55:51;;;;;;;4.82;1.52;;;;;;;;;;5155346;27;20134;-78
2023/12/31 08:58:19;;;;;;;4.97;1.70;;;;;;;;;;5155343;27;20046;-77
2023/12/31 09:00:45;;;;;;;6.03;1.42;;;;;;;;;;5136445;27;20125;-77
2023/12/31 09:03:11;;;;;;;3.67;1.23;;;;;;;;;;5136784;27;20497;-79
2023/12/31 09:05:37;;;;;;;5.60;1.85;;;;;;;;;;5154553;27;20050;-77
2023/12/31 09:08:04;;;;;;;5.13;2.00;;;;;;;;;;5136989;27;20050;-78
2023/12/31 09:10:30;;;;;;;4.27;2.00;;;;;;;;;;5155684;27;20101;-78
2023/12/31 09:12:56;;;;;;;3.95;1.55;;;;;;;;;;5155041;27;20363;-76
2023/12/31 09:15:22;;;;;;;4.15;1.60;;;;;;;;;;5155271;27;20087;-79
2023/12/31 09:17:49;;;;;;;5.63;1.60;;;;;;;;;;5137391;27;20095;-79
2023/12/31 09:20:15;;;;;;;4.95;1.95;;;;;;;;;;5155998;27;20093;-77
2023/12/31 09:22:41;;;;;;;5.78;2.17;;;;;;;;;;5157472;27;20041;-78
2023/12/31 09:25:08;;;;;;;6.00;2.13;;;;;;;;;;5157387;27;20047;-78
2023/12/31 09:27:34;;;;;;;6.05;2.00;;;;;;;;;;5141593;27;20050;-78
2023/12/31 09:30:00;;;;;;;4.83;1.87;;;;;;;;;;5160077;27;20050;-77
2023/12/31 09:32:26;;;;;;;4.90;2.00;;;;;;;;;;5140295;27;20287;-78
2023/12/31 09:34:52;;;;;;;4.88;2.05;;;;;;;;;;5140634;27;20045;-76
2023/12/31 09:37:19;;;;;;;8.05;2.78;;;;;;;;;;5158754;27;20152;-77
2023/12/31 09:39:46;;;;;;;7.00;3.42;;;;;;;;;;5140662;27;20159;-77
2023/12/31 09:42:13;;;;;;;6.38;2.65;;;;;;;;;;5158800;27;20047;-78
2023/12/31 09:44:41;;;;;;;7.30;3.15;;;;;;;;;;5158741;27;20110;-77
2023/12/31 09:47:08;;;;;;;5.72;2.25;;;;;;;;;;5140031;27;20087;-78
2023/12/31 09:49:35;;;;;;;5.35;1.85;;;;;;;;;;5158518;27;20046;-75
2023/12/31 09:52:05;;;;;;;5.90;2.50;;;;;;;;;;5158232;27;20478;-77
2023/12/31 09:54:35;;;;;;;6.45;2.20;;;;;;;;;;5140723;27;20382;-77
2023/12/31 09:57:01;;;;;;;9.25;3.00;;;;;;;;;;5158689;27;20375;-75
2023/12/31 09:59:28;;;;;;;7.55;2.83;;;;;;;;;;5140219;27;20046;-76
2023/12/31 10:01:58;;;;;;;6.25;2.50;;;;;;;;;;5158322;27;20081;-74
2023/12/31 10:04:24;;;;;;;5.13;2.22;;;;;;;;;;5140523;27;20042;-76
2023/12/31 10:06:51;;;;;;;4.50;1.63;;;;;;;;;;5157853;27;20062;-77
2023/12/31 10:09:23;;;;;;;6.45;2.25;;;;;;;;;;5157896;27;20047;-75
2023/12/31 10:11:49;;;;;;;6.30;2.05;;;;;;;;;;5158073;27;20092;-73
2023/12/31 10:14:16;;;;;;;5.78;2.53;;;;;;;;;;5158181;27;20490;-76
2023/12/31 10:16:45;;;;;;;5.82;2.10;;;;;;;;;;5157919;27;20039;-77
2023/12/31 10:19:11;;;;;;;5.97;2.20;;;;;;;;;;5157809;27;20502;-76
2023/12/31 10:21:38;;;;;;;5.75;2.53;;;;;;;;;;5158018;27;20051;-75
2023/12/31 10:24:04;;;;;;;6.53;2.90;;;;;;;;;;5139530;27;20053;-75
2023/12/31 10:26:30;;;;;;;6.45;2.60;;;;;;;;;;5158370;27;20039;-77
2023/12/31 10:28:56;;;;;;;6.72;2.30;;;;;;;;;;5139525;27;20058;-76
2023/12/31 10:31:24;;;;;;;5.68;2.20;;;;;;;;;;5158677;27;20043;-77
2023/12/31 10:33:50;;;;;;;6.35;2.60;;;;;;;;;;5158244;27;20038;-75
2023/12/31 10:36:21;;;;;;;6.43;3.17;;;;;;;;;;5122397;27;20057;-75
2023/12/31 10:38:48;;;;;;;6.05;3.20;;;;;;;;;;5157027;27;20068;-76
2023/12/31 10:41:24;;;;;;;7.68;3.15;;;;;;;;;;5139573;27;20046;-77
2023/12/31 10:43:51;;;;;;;6.07;3.17;;;;;;;;;;5158089;27;20046;-77
2023/12/31 10:46:21;;;;;;;8.10;3.50;;;;;;;;;;5139338;27;20055;-76
2023/12/31 10:48:51;;;;;;;6.00;2.95;;;;;;;;;;5139864;27;20125;-74
2023/12/31 10:51:22;;;;;;;11.68;6.85;;;;;;;;;;5157611;27;20058;-76
2023/12/31 10:53:50;;;;;;;11.65;2.80;;;;;;;;;;5157382;27;20089;-76
2023/12/31 10:56:18;;;;;;;7.85;2.40;;;;;;;;;;5157261;27;20419;-75
2023/12/31 10:58:44;;;;;;;9.45;3.90;;;;;;;;;;5157930;27;20368;-76
2023/12/31 11:01:10;;;;;;;4.57;2.20;;;;;;;;;;5156875;27;20478;-75
2023/12/31 11:03:38;;;;;;;5.18;2.10;;;;;;;;;;5138438;27;20549;-77
2023/12/31 11:06:05;;;;;;;5.72;2.45;;;;;;;;;;5157172;27;20054;-74
2023/12/31 11:08:31;;;;;;;5.80;2.40;;;;;;;;;;5139677;27;20050;-76
2023/12/31 11:10:57;;;;;;;5.82;1.73;;;;;;;;;;5157774;27;20118;-75
2023/12/31 11:13:25;;;;;;;3.60;1.70;;;;;;;;;;5157045;27;20042;-74
2023/12/31 11:15:51;;;;;;;;;;;;;;;;;;5157446;27;20099;-76
2023/12/31 11:18:33;;;;;;;3.67;1.60;;;;;;;;;;5139197;27;19919;-76
2023/12/31 11:21:07;;;;;;;4.88;2.25;;;;;;;;;;5157484;27;20288;-76
2023/12/31 11:23:52;;;;;;;3.35;1.48;;;;;;;;;;5138577;27;20085;-76
2023/12/31 11:26:18;;;;;;;4.95;2.40;;;;;;;;;;5156947;27;20054;-75
2023/12/31 11:28:48;;;;;;;4.68;1.70;;;;;;;;;;5156876;27;20054;-81
2023/12/31 11:31:14;;;;;;;4.70;1.88;;;;;;;;;;5157111;27;20039;-74
2023/12/31 11:33:40;;;;;;;1.50;0.50;;;;;;;;;;5156932;27;20039;-76
2023/12/31 11:36:11;;;;;;;2.42;0.30;;;;;;;;;;5156696;27;20082;-78
2023/12/31 11:38:49;;;;;;;2.30;0.20;;;;;;;;;;5157031;27;20042;-78
2023/12/31 11:41:18;;;;;;;1.67;0.45;;;;;;;;;;5156667;27;20133;-78
2023/12/31 11:43:44;;;;;;;1.08;0.20;;;;;;;;;;5138044;27;20085;-76
2023/12/31 11:46:11;;;;;;;1.75;0.55;;;;;;;;;;5156662;27;20070;-76
2023/12/31 11:48:38;;;;;;;1.88;0.30;;;;;;;;;;5157578;27;20043;-75
2023/12/31 11:51:04;;;;;;;2.58;0.20;;;;;;;;;;5161762;27;20046;-73
2023/12/31 11:53:48;;;;;;;1.50;0.30;;;;;;;;;;5166044;27;20053;-74
2023/12/31 11:56:14;;;;;;;1.85;0.25;;;;;;;;;;5158768;27;20487;-74
2023/12/31 11:58:43;;;;;;;0.88;0.22;;;;;;;;;;5157154;27;20046;-73
2023/12/31 12:01:10;;;;;;;1.30;0.28;;;;;;;;;;5156390;27;20375;-72
2023/12/31 12:03:36;;;;;;;1.10;0.30;;;;;;;;;;5156141;27;20043;-71
2023/12/31 12:06:02;;;;;;;2.15;0.57;;;;;;;;;;5155684;27;20101;-71
2023/12/31 12:08:29;;;;;;;4.45;1.15;;;;;;;;;;5137824;27;20042;-71
2023/12/31 12:10:56;;;;;;;1.70;0.60;;;;;;;;;;5137623;27;20055;-71
2023/12/31 12:13:22;;;;;;;3.03;0.80;;;;;;;;;;5137487;27;20122;-70
2023/12/31 12:15:48;;;;;;;1.48;0.45;;;;;;;;;;5155718;27;20053;-71
2023/12/31 12:18:15;;;;;;;4.03;1.05;;;;;;;;;;5155820;27;20043;-71
2023/12/31 12:20:42;;;;;;;3.97;1.60;;;;;;;;;;5155773;27;20058;-71
2023/12/31 12:23:08;;;;;;;6.80;1.83;;;;;;;;;;5137403;27;20062;-73
2023/12/31 12:25:34;;;;;;;3.65;1.50;;;;;;;;;;5137491;27;20039;-71
2023/12/31 12:28:00;;;;;;;4.60;1.70;;;;;;;;;;5155525;27;20134;-72
2023/12/31 12:30:27;;;;;;;7.43;3.10;;;;;;;;;;5155796;27;20043;-72
2023/12/31 12:32:54;;;;;;;;;;;;;;;;;;5156203;27;20280;-71
2023/12/31 12:35:23;;;;;;;14.02;8.32;;;;;;;;;;5155597;27;19978;-72
2023/12/31 12:37:49;;;;;;;11.98;6.65;;;;;;;;;;5136920;27;20042;-73
2023/12/31 12:40:17;;;;;;;9.35;4.88;;;;;;;;;;5138223;27;20133;-73
2023/12/31 12:42:43;;;;;;;;;;;;;;;;;;5156543;27;20050;-74
2023/12/31 12:45:10;;;;;;;13.48;5.85;;;;;;;;;;5155957;27;20395;-73
2023/12/31 12:47:36;;;;;;;6.18;2.10;;;;;;;;;;5155644;27;20047;-73
2023/12/31 12:50:02;;;;;;;4.55;2.28;;;;;;;;;;5137067;27;20039;-73
2023/12/31 12:52:30;;;;;;;4.00;1.00;;;;;;;;;;5155870;27;20047;-72
2023/12/31 12:54:57;;;;;;;2.97;0.70;;;;;;;;;;5137201;27;20055;-72
2023/12/31 12:57:23;;;;;;;3.35;0.85;;;;;;;;;;5155888;27;20497;-72
2023/12/31 12:59:49;;;;;;;2.03;0.70;;;;;;;;;;5138081;27;20102;-72
2023/12/31 13:02:15;;;;;;;1.77;0.60;;;;;;;;;;5155167;27;20065;-70
2023/12/31 13:04:41;;;;;;;2.40;0.63;;;;;;;;;;5137037;27;20042;-70
2023/12/31 13:07:07;;;;;;;4.15;0.63;;;;;;;;;;5155820;27;20062;-73
2023/12/31 13:09:36;;;;;;;4.90;0.70;;;;;;;;;;5137122;27;20057;-72
2023/12/31 13:12:02;;;;;;;1.83;0.35;;;;;;;;;;5155989;27;20206;-73
2023/12/31 13:14:28;;;;;;;1.92;0.30;;;;;;;;;;5156017;27;20046;-72
2023/12/31 13:16:54;;;;;;;2.40;0.40;;;;;;;;;;5136996;27;20085;-72
2023/12/31 13:19:20;;;;;;;4.05;1.48;;;;;;;;;;5155308;27;20042;-72
2023/12/31 13:21:47;;;;;;;4.88;0.70;;;;;;;;;;5136705;27;20076;-73
2023/12/31 13:24:15;;;;;;;4.53;0.50;;;;;;;;;;5119681;27;20473;-71
2023/12/31 13:26:41;;;;;;;7.15;1.60;;;;;;;;;;5155311;27;20043;-72
2023/12/31 13:29:07;;;;;;;7.20;1.20;;;;;;;;;;5155690;27;20055;-72
2023/12/31 13:31:35;;;;;;;4.80;1.13;;;;;;;;;;5155137;27;20608;-72
2023/12/31 13:34:01;;;;;;;6.90;2.10;;;;;;;;;;5136784;27;20051;-74
2023/12/31 13:36:27;;;;;;;7.38;1.92;;;;;;;;;;5136502;27;20482;-72
2023/12/31 13:38:53;;;;;;;8.63;2.00;;;;;;;;;;5155299;27;20046;-72
2023/12/31 13:41:19;;;;;;;6.40;2.05;;;;;;;;;;5137278;27;20098;-73
2023/12/31 13:43:45;;;;;;;7.60;2.30;;;;;;;;;;5155148;27;20050;-73
2023/12/31 13:46:11;;;;;;;9.52;3.67;;;;;;;;;;5154848;27;20039;-73
2023/12/31 13:48:37;;;;;;;10.68;3.50;;;;;;;;;;5154925;27;20087;-74
2023/12/31 13:51:04;;;;;;;8.07;3.35;;;;;;;;;;5155372;27;20051;-73
2023/12/31 13:53:30;;;;;;;11.48;4.60;;;;;;;;;;5154539;27;20621;-73
2023/12/31 13:55:56;;;;;;;12.33;3.73;;;;;;;;;;5154605;27;20095;-72
2023/12/31 13:58:22;;;;;;;14.80;4.72;;;;;;;;;;5136223;27;20129;-73
2023/12/31 14:00:50;;;;;;;10.10;4.18;;;;;;;;;;5154994;27;20135;-73
2023/12/31 14:03:16;;;;;;;14.30;6.78;;;;;;;;;;5119716;27;20082;-75
2023/12/31 14:05:42;;;;;;;9.65;4.80;;;;;;;;;;5155209;27;20111;-74
2023/12/31 14:08:08;;;;;;;5.90;2.30;;;;;;;;;;5155326;27;20074;-73
2023/12/31 14:10:35;;;;;;;12.65;5.57;;;;;;;;;;5119648;27;20054;-75
2023/12/31 14:13:02;;;;;;;7.95;2.10;;;;;;;;;;5137893;27;20115;-75
2023/12/31 14:15:32;;;;;;;6.55;1.95;;;;;;;;;;5166977;27;20038;-72
2023/12/31 14:17:58;;;;;;;7.95;3.17;;;;;;;;;;5175315;27;20102;-74
2023/12/31 14:20:25;;;;;;;8.55;2.90;;;;;;;;;;5168853;27;20046;-74
2023/12/31 14:22:51;;;;;;;9.05;3.35;;;;;;;;;;5141655;27;20039;-74
2023/12/31 14:25:17;;;;;;;5.63;1.67;;;;;;;;;;5158653;27;20045;-78
2023/12/31 14:27:44;;;;;;;6.18;1.77;;;;;;;;;;5158814;27;20043;-75
2023/12/31 14:30:10;;;;;;;4.97;1.80;;;;;;;;;;5158671;27;20130;-75
2023/12/31 14:32:37;;;;;;;5.93;1.70;;;;;;;;;;5158335;27;20046;-75
2023/12/31 14:35:05;;;;;;;8.27;1.90;;;;;;;;;;5140763;27;20284;-76
2023/12/31 14:37:31;;;;;;;6.95;1.58;;;;;;;;;;5158315;27;20043;-76
2023/12/31 14:39:57;;;;;;;7.07;1.98;;;;;;;;;;5158476;27;20129;-75